Time;durP1;ratioP1;P1;durP2;ratioP2;P2;SDS_P1;SDS_P2;PMS_P1;PMS_P2;Temp;Humidity;BMP_temperature;BMP_pressure;BME280_temperature;BME280_humidity;BME280_pressure;Samples;Min_cycle;Max_cycle;Signal;HPM_P1;HPM_P2
2021/05/19 00:00:10;;;;;;;13.55;4.55;;;;;;;24.39;19.80;98546.34;5051604;28;20047;-44
2021/05/19 00:02:36;;;;;;;11.82;4.68;;;;;;;24.60;19.98;98576.78;5051354;28;20029;-49
2021/05/19 00:05:02;;;;;;;13.95;4.95;;;;;;;24.59;20.00;98591.53;5049354;28;20120;-45
2021/05/19 00:07:27;;;;;;;8.25;4.50;;;;;;;24.45;20.36;98593.75;5048799;28;20098;-45
2021/05/19 00:09:53;;;;;;;11.38;4.35;;;;;;;24.45;20.31;98585.53;5050739;28;20041;-47
2021/05/19 00:12:18;;;;;;;8.02;4.68;;;;;;;24.32;20.51;98573.00;5051572;28;20033;-50
2021/05/19 00:14:44;;;;;;;14.35;4.88;;;;;;;24.02;20.54;98542.09;5051461;28;20089;-42
2021/05/19 00:17:09;;;;;;;14.20;4.82;;;;;;;24.41;20.55;98587.94;5051067;28;20493;-46
2021/05/19 00:19:35;;;;;;;12.82;4.85;;;;;;;24.41;20.31;98587.94;5051151;28;20495;-47
2021/05/19 00:22:00;;;;;;;9.30;4.35;;;;;;;24.08;20.81;98562.16;5051135;28;20033;-46
2021/05/19 00:24:26;;;;;;;12.05;4.80;;;;;;;24.22;20.91;98579.94;5049957;28;20437;-50
2021/05/19 00:26:59;;;;;;;14.82;4.75;;;;;;;24.35;20.73;98580.69;5051177;28;20037;-47
2021/05/19 00:29:25;;;;;;;10.60;4.20;;;;;;;24.16;20.68;98559.03;5051028;28;20032;-45
2021/05/19 00:31:56;;;;;;;10.30;4.53;;;;;;;24.22;20.49;98587.28;5051178;28;20033;-46
2021/05/19 00:34:22;;;;;;;10.57;4.32;;;;;;;24.31;20.57;98587.75;5050913;28;20509;-45
2021/05/19 00:36:47;;;;;;;11.13;4.40;;;;;;;24.28;20.40;98601.91;5050419;28;20052;-42
2021/05/19 00:39:13;;;;;;;9.65;4.15;;;;;;;24.13;20.75;98588.78;5050485;28;20083;-56
2021/05/19 00:41:41;;;;;;;16.98;4.50;;;;;;;23.71;20.85;98524.25;5050622;28;20056;-46
2021/05/19 00:44:10;;;;;;;13.80;4.43;;;;;;;24.07;20.65;98587.84;5050878;28;20091;-43
2021/05/19 00:46:36;;;;;;;9.35;5.00;;;;;;;24.08;20.75;98575.81;5050544;28;20037;-43
2021/05/19 00:49:02;;;;;;;9.15;4.55;;;;;;;24.06;20.68;98561.56;5050000;28;20037;-44
2021/05/19 00:51:28;;;;;;;13.15;4.30;;;;;;;24.00;20.74;98565.25;5050653;28;20037;-43
2021/05/19 00:53:55;;;;;;;12.93;4.30;;;;;;;24.08;20.74;98578.56;5050485;28;20439;-46
2021/05/19 00:56:23;;;;;;;7.25;4.40;;;;;;;24.00;20.83;98548.84;5050407;28;20037;-49
2021/05/19 00:58:59;;;;;;;9.00;4.20;;;;;;;24.08;20.76;98581.28;5049046;28;20032;-43
2021/05/19 01:01:25;;;;;;;11.32;4.22;;;;;;;23.97;21.07;98576.69;5050267;28;20390;-46
2021/05/19 01:03:50;;;;;;;10.88;4.45;;;;;;;23.98;21.19;98576.41;5049628;28;20040;-43
2021/05/19 01:06:29;;;;;;;10.02;4.32;;;;;;;23.94;21.43;98573.34;5047923;28;20051;-43
2021/05/19 01:11:39;;;;;;;8.63;4.82;;;;;;;23.59;21.48;98516.88;5048009;28;20086;-45
2021/05/19 01:14:05;;;;;;;10.95;4.60;;;;;;;23.85;21.37;98563.03;5047677;28;20617;-43
2021/05/19 01:16:31;;;;;;;10.20;3.80;;;;;;;23.82;21.37;98553.41;5047927;28;20067;-48
2021/05/19 01:18:57;;;;;;;7.45;4.20;;;;;;;23.83;21.75;98570.66;5048997;28;20033;-43
2021/05/19 01:21:23;;;;;;;8.40;4.68;;;;;;;23.38;21.68;98499.25;5047616;28;20663;-47
2021/05/19 01:23:49;;;;;;;11.55;4.70;;;;;;;23.65;21.84;98556.94;5047642;28;20037;-50
2021/05/19 01:26:15;;;;;;;7.93;4.05;;;;;;;23.64;22.03;98568.94;5047850;28;20044;-58
2021/05/19 01:28:42;;;;;;;12.82;4.40;;;;;;;23.72;21.83;98564.16;5048157;28;20036;-45
2021/05/19 01:31:09;;;;;;;5.40;3.97;;;;;;;23.70;21.90;98560.84;5047550;28;20045;-48
2021/05/19 01:33:35;;;;;;;14.15;4.60;;;;;;;23.57;22.13;98556.47;5047842;28;20033;-48
2021/05/19 01:36:01;;;;;;;11.65;4.38;;;;;;;23.61;21.96;98552.97;5047971;28;20033;-46
2021/05/19 01:38:26;;;;;;;10.82;4.40;;;;;;;23.59;22.19;98544.22;5047427;28;20155;-47
2021/05/19 01:40:52;;;;;;;15.40;4.25;;;;;;;23.49;22.11;98522.16;5047334;28;20087;-49
2021/05/19 01:43:17;;;;;;;10.02;4.43;;;;;;;23.52;22.35;98524.41;5047669;28;20147;-44
2021/05/19 01:45:43;;;;;;;7.97;4.00;;;;;;;23.60;22.22;98564.19;5047566;28;20419;-50
2021/05/19 01:48:17;;;;;;;13.40;4.50;;;;;;;23.71;22.06;98559.75;5047229;28;20178;-42
2021/05/19 01:50:43;;;;;;;10.52;4.20;;;;;;;23.36;22.26;98510.41;5048614;28;20032;-46
2021/05/19 01:53:11;;;;;;;8.65;3.92;;;;;;;23.70;22.28;98569.03;5047123;28;20048;-46
2021/05/19 01:55:36;;;;;;;9.93;4.45;;;;;;;23.66;22.17;98555.00;5047138;28;20127;-48
2021/05/19 01:58:02;;;;;;;9.27;4.22;;;;;;;23.69;22.25;98554.53;5047400;28;20039;-42
2021/05/19 02:00:28;;;;;;;8.77;4.53;;;;;;;23.60;22.04;98518.53;5047617;28;20037;-43
2021/05/19 02:03:12;;;;;;;7.82;4.25;;;;;;;23.80;22.16;98540.00;5045799;28;20033;-48
2021/05/19 02:05:38;;;;;;;13.15;4.28;;;;;;;23.75;22.30;98544.53;5049668;28;20029;-53
2021/05/19 02:08:06;;;;;;;7.72;4.03;;;;;;;23.77;22.30;98562.34;5053197;28;20036;-46
2021/05/19 02:10:32;;;;;;;11.35;4.15;;;;;;;23.32;22.60;98494.75;5051723;28;20054;-44
2021/05/19 02:13:03;;;;;;;9.82;4.13;;;;;;;23.64;22.64;98535.28;5051097;28;20391;-45
2021/05/19 02:15:29;;;;;;;8.43;4.40;;;;;;;23.36;22.84;98501.41;5051187;28;20102;-44
2021/05/19 02:17:54;;;;;;;11.55;4.07;;;;;;;23.56;22.80;98511.09;5051228;28;20051;-46
2021/05/19 02:20:22;;;;;;;8.40;4.15;;;;;;;23.35;23.10;98516.13;5051416;28;20490;-48
2021/05/19 02:22:48;;;;;;;12.15;4.93;;;;;;;23.55;23.01;98518.44;5051684;28;20468;-45
2021/05/19 02:25:16;;;;;;;9.30;4.30;;;;;;;23.42;23.05;98513.25;5051323;28;20037;-48
2021/05/19 02:27:43;;;;;;;11.13;4.22;;;;;;;23.32;23.09;98479.19;5051297;28;20517;-45
2021/05/19 02:30:09;;;;;;;9.95;4.47;;;;;;;23.49;23.19;98512.03;5051451;28;20064;-49
2021/05/19 02:32:36;;;;;;;14.98;4.55;;;;;;;23.51;23.09;98498.16;5051267;28;20064;-51
2021/05/19 02:35:02;;;;;;;7.70;4.50;;;;;;;23.48;23.24;98510.38;5051202;28;20091;-47
2021/05/19 02:37:28;;;;;;;8.60;4.57;;;;;;;23.21;23.21;98437.16;5050387;28;20410;-50
2021/05/19 02:39:54;;;;;;;7.90;4.03;;;;;;;23.58;23.35;98493.38;5052791;28;20057;-45
2021/05/19 02:42:19;;;;;;;10.48;4.30;;;;;;;23.68;23.20;98491.94;5050362;28;20036;-42
2021/05/19 02:44:45;;;;;;;14.40;4.47;;;;;;;23.79;23.36;98488.31;5050753;28;20051;-45
2021/05/19 02:47:10;;;;;;;13.85;4.90;;;;;;;23.75;23.33;98482.53;5050764;28;20067;-48
2021/05/19 02:49:36;;;;;;;10.13;4.45;;;;;;;23.64;23.23;98470.56;5050705;28;20040;-47
2021/05/19 02:52:02;;;;;;;8.55;4.22;;;;;;;23.84;23.51;98512.19;5049208;28;20678;-44
2021/05/19 02:54:28;;;;;;;8.32;4.68;;;;;;;23.97;23.38;98508.34;5051335;28;20043;-47
2021/05/19 02:56:53;;;;;;;9.77;4.75;;;;;;;23.88;23.54;98505.16;5050349;28;20064;-42
2021/05/19 02:59:19;;;;;;;12.35;4.65;;;;;;;23.98;23.33;98567.41;5050369;28;20032;-52
2021/05/19 03:01:45;;;;;;;11.10;4.55;;;;;;;24.21;23.14;98586.47;5052697;28;20032;-44
2021/05/19 03:04:11;;;;;;;7.93;4.22;;;;;;;24.35;23.04;98569.75;5052297;28;20084;-42
2021/05/19 03:06:36;;;;;;;9.57;4.22;;;;;;;24.26;23.16;98554.84;5052745;28;20159;-44
2021/05/19 03:09:05;;;;;;;14.13;4.47;;;;;;;24.42;23.26;98569.63;5051200;28;20116;-44
2021/05/19 03:11:31;;;;;;;6.53;4.13;;;;;;;24.39;23.21;98546.34;5051661;28;20499;-43
2021/05/19 03:13:57;;;;;;;4.90;3.92;;;;;;;24.43;23.12;98536.56;5050477;28;20036;-51
2021/05/19 03:16:22;;;;;;;8.88;4.10;;;;;;;24.67;22.91;98555.56;5049725;28;20033;-47
2021/05/19 03:18:48;;;;;;;6.70;4.05;;;;;;;24.82;22.64;98549.53;5052374;28;20029;-44
2021/05/19 03:21:14;;;;;;;14.45;4.53;;;;;;;25.08;22.37;98553.53;5051066;28;20041;-44
2021/05/19 03:23:40;;;;;;;12.95;4.30;;;;;;;25.51;21.66;98556.59;5052358;28;20201;-41
2021/05/19 03:26:07;;;;;;;13.27;4.00;;;;;;;25.88;21.27;98537.84;5051680;28;20418;-49
2021/05/19 03:28:33;;;;;;;9.13;4.72;;;;;;;26.20;20.99;98542.63;5052100;28;20029;-47
2021/05/19 03:30:58;;;;;;;9.48;3.80;;;;;;;25.64;20.81;98412.06;5051767;28;20082;-49
2021/05/19 03:33:24;;;;;;;8.93;4.10;;;;;;;26.71;20.53;98566.97;5052011;28;20073;-48
2021/05/19 03:35:50;;;;;;;11.20;4.30;;;;;;;26.90;19.72;98583.09;5052255;28;20072;-47
2021/05/19 03:38:16;;;;;;;9.75;4.25;;;;;;;26.71;20.22;98550.50;5051445;28;20025;-50
2021/05/19 03:40:43;;;;;;;10.15;4.32;;;;;;;26.60;20.65;98551.53;5049621;28;20057;-44
2021/05/19 03:43:08;;;;;;;16.75;4.30;;;;;;;26.47;20.71;98581.03;5049393;28;20052;-42
2021/05/19 03:45:34;;;;;;;14.35;4.35;;;;;;;26.60;20.42;98560.56;5049854;28;20156;-45
2021/05/19 03:48:00;;;;;;;24.25;5.00;;;;;;;27.16;19.77;98561.31;5049432;28;20074;-47
2021/05/19 03:50:30;;;;;;;8.75;4.22;;;;;;;27.89;19.06;98560.63;5049382;28;20067;-41
2021/05/19 03:53:00;;;;;;;9.43;4.15;;;;;;;28.87;18.37;98567.44;5049276;28;20036;-48
2021/05/19 03:55:26;;;;;;;10.38;4.35;;;;;;;29.54;17.29;98556.34;5049963;28;20191;-47
2021/05/19 03:57:52;;;;;;;17.55;5.00;;;;;;;30.09;16.72;98572.13;5050750;28;20128;-46
2021/05/19 04:00:22;;;;;;;11.85;4.70;;;;;;;30.29;16.76;98570.38;5051889;28;20513;-43
2021/05/19 04:02:50;;;;;;;11.10;4.20;;;;;;;30.86;16.37;98556.16;5052174;28;20036;-43
2021/05/19 04:05:26;;;;;;;12.48;4.05;;;;;;;31.35;15.94;98565.41;5052217;28;20052;-44
2021/05/19 04:07:52;;;;;;;12.77;4.60;;;;;;;31.56;15.46;98556.88;5051728;28;20033;-56
2021/05/19 04:10:17;;;;;;;13.02;5.28;;;;;;;31.44;15.48;98554.53;5050536;28;20558;-45
2021/05/19 04:12:43;;;;;;;24.75;4.85;;;;;;;31.60;15.79;98536.66;5051615;28;20111;-45
2021/05/19 04:15:10;;;;;;;15.95;5.10;;;;;;;31.91;15.51;98565.88;5051520;28;20491;-43
2021/05/19 04:17:36;;;;;;;15.52;4.80;;;;;;;32.21;15.42;98538.91;5051251;28;20504;-44
2021/05/19 04:20:03;;;;;;;10.85;5.05;;;;;;;32.91;14.81;98567.75;5051098;28;20119;-44
2021/05/19 04:22:29;;;;;;;15.77;4.78;;;;;;;33.20;14.92;98550.09;5051238;28;20040;-47
2021/05/19 04:24:55;;;;;;;15.73;4.93;;;;;;;33.48;14.35;98550.13;5051589;28;20037;-47
2021/05/19 04:27:21;;;;;;;17.55;4.75;;;;;;;34.52;13.94;98549.91;5050962;28;20040;-44
2021/05/19 04:29:46;;;;;;;12.93;4.95;;;;;;;34.83;13.48;98538.81;5051048;28;20458;-46
2021/05/19 04:32:12;;;;;;;13.20;5.00;;;;;;;35.26;13.37;98548.59;5050690;28;20036;-47
2021/05/19 04:34:38;;;;;;;10.38;4.90;;;;;;;35.42;13.16;98548.13;5050880;28;20405;-45
2021/05/19 04:37:05;;;;;;;11.35;4.43;;;;;;;35.95;12.90;98551.13;5050877;28;20029;-46
2021/05/19 04:39:31;;;;;;;8.80;4.53;;;;;;;35.95;12.86;98540.78;5050578;28;20520;-47
2021/05/19 04:41:57;;;;;;;10.73;4.93;;;;;;;36.39;12.38;98557.56;5050809;28;20121;-47
2021/05/19 04:44:22;;;;;;;11.25;5.10;;;;;;;36.43;12.30;98561.38;5051446;28;20080;-48
2021/05/19 04:46:48;;;;;;;12.45;4.68;;;;;;;36.66;12.07;98580.72;5050475;28;20033;-44
2021/05/19 04:49:13;;;;;;;11.20;5.15;;;;;;;37.03;11.99;98574.81;5050679;28;20037;-42
2021/05/19 04:51:38;;;;;;;11.20;4.63;;;;;;;37.58;11.84;98573.13;5049499;28;20033;-46
2021/05/19 04:54:04;;;;;;;12.15;4.20;;;;;;;37.97;11.58;98573.13;5050365;28;20112;-45
2021/05/19 04:56:30;;;;;;;11.93;4.35;;;;;;;37.84;11.28;98558.22;5050733;28;20486;-48
2021/05/19 04:58:55;;;;;;;13.35;4.60;;;;;;;38.34;10.73;98583.69;5050223;28;20044;-47
2021/05/19 05:01:21;;;;;;;9.43;4.25;;;;;;;38.19;11.12;98569.19;5050418;28;20115;-45
2021/05/19 05:03:46;;;;;;;12.70;4.30;;;;;;;38.26;11.07;98601.38;5050124;28;20506;-48
2021/05/19 05:06:12;;;;;;;9.57;4.18;;;;;;;38.75;10.97;98601.66;5050322;28;20040;-45
2021/05/19 05:08:44;;;;;;;13.85;4.00;;;;;;;39.66;10.17;98593.63;5050115;28;20044;-46
2021/05/19 05:11:09;;;;;;;9.88;4.35;;;;;;;39.83;10.28;98570.22;5050336;28;20033;-46
2021/05/19 05:13:35;;;;;;;17.20;4.30;;;;;;;40.26;10.07;98583.91;5050513;28;20039;-53
2021/05/19 05:16:00;;;;;;;9.38;3.35;;;;;;;40.82;9.62;98590.78;5048697;28;20041;-46
2021/05/19 05:18:26;;;;;;;8.73;4.07;;;;;;;41.11;10.13;98597.19;5050157;28;20979;-58
2021/05/19 05:20:51;;;;;;;8.55;3.72;;;;;;;40.56;9.59;98617.28;5050669;28;20029;-49
2021/05/19 05:23:17;;;;;;;9.57;4.15;;;;;;;40.51;9.98;98631.53;5049151;28;20468;-49
2021/05/19 05:25:42;;;;;;;11.30;4.05;;;;;;;40.59;9.84;98613.75;5050291;28;20029;-44
2021/05/19 05:28:08;;;;;;;12.80;4.15;;;;;;;41.40;9.94;98632.50;5050046;28;20032;-45
2021/05/19 05:30:33;;;;;;;13.00;3.92;;;;;;;41.13;9.55;98629.34;5049869;28;20044;-50
2021/05/19 05:32:59;;;;;;;16.80;3.85;;;;;;;40.65;10.09;98640.38;5049912;28;20477;-48
2021/05/19 05:35:24;;;;;;;9.05;3.45;;;;;;;41.20;9.69;98673.66;5050147;28;20039;-45
2021/05/19 05:37:50;;;;;;;14.52;4.20;;;;;;;41.64;9.43;98663.59;5049525;28;20407;-49
2021/05/19 05:40:15;;;;;;;6.93;3.38;;;;;;;41.55;9.35;98667.38;5049142;28;20396;-44
2021/05/19 05:42:41;;;;;;;8.13;3.08;;;;;;;41.67;9.22;98626.34;5050203;28;20041;-47
2021/05/19 05:45:07;;;;;;;8.23;3.40;;;;;;;42.51;9.06;98646.03;5049697;28;20043;-48
2021/05/19 05:47:34;;;;;;;9.57;3.22;;;;;;;43.43;8.15;98675.66;5049651;28;21510;-50
2021/05/19 05:50:02;;;;;;;10.10;3.45;;;;;;;44.06;7.97;98662.22;5048926;28;20047;-46
2021/05/19 05:52:28;;;;;;;9.20;3.08;;;;;;;44.05;8.19;98693.66;5049981;28;20045;-49
2021/05/19 05:54:53;;;;;;;6.72;3.08;;;;;;;44.24;7.92;98678.66;5049682;28;20067;-47
2021/05/19 05:57:19;;;;;;;6.15;3.28;;;;;;;44.77;7.46;98674.16;5049655;28;20486;-47
2021/05/19 05:59:45;;;;;;;9.98;3.35;;;;;;;45.05;7.50;98647.47;5049946;28;20033;-45
2021/05/19 06:02:10;;;;;;;7.97;3.20;;;;;;;44.14;8.20;98702.66;5049539;28;20040;-48
2021/05/19 06:04:36;;;;;;;7.88;2.80;;;;;;;43.33;8.48;98677.09;5049371;28;20106;-44
2021/05/19 06:07:01;;;;;;;7.75;2.55;;;;;;;43.08;9.05;98697.09;5049414;28;20052;-50
2021/05/19 06:09:27;;;;;;;9.50;2.70;;;;;;;43.72;8.60;98724.09;5049838;28;20493;-43
2021/05/19 06:11:52;;;;;;;14.52;2.50;;;;;;;43.57;8.91;98692.81;5049569;28;20028;-42
2021/05/19 06:14:20;;;;;;;13.93;2.65;;;;;;;43.71;8.85;98699.94;5048993;28;20102;-55
2021/05/19 06:16:45;;;;;;;7.75;2.35;;;;;;;43.36;8.79;98681.16;5049178;28;20117;-47
2021/05/19 06:19:11;;;;;;;6.65;2.22;;;;;;;43.85;8.83;98669.16;5052104;28;20120;-42
2021/05/19 06:21:36;;;;;;;8.73;2.42;;;;;;;44.29;8.51;98627.53;5069466;28;20070;-47
2021/05/19 06:24:03;;;;;;;8.02;2.25;;;;;;;45.79;7.66;98674.06;5055674;28;20033;-44
2021/05/19 06:26:29;;;;;;;3.20;2.28;;;;;;;46.44;7.39;98674.56;5049501;28;20136;-58
2021/05/19 06:28:55;;;;;;;6.32;2.80;;;;;;;46.84;7.35;98665.47;5050212;28;20037;-48
2021/05/19 06:31:20;;;;;;;10.13;2.67;;;;;;;47.79;6.42;98673.03;5054438;28;20027;-48
2021/05/19 06:33:46;;;;;;;6.38;2.70;;;;;;;48.23;6.32;98726.88;5061676;28;20086;-48
2021/05/19 06:36:11;;;;;;;7.47;2.90;;;;;;;48.20;6.48;98688.81;5051613;28;20033;-45
2021/05/19 06:38:37;;;;;;;9.30;2.60;;;;;;;48.76;6.19;98676.09;5052038;28;20037;-51
2021/05/19 06:41:03;;;;;;;10.55;2.80;;;;;;;48.76;6.24;98664.75;5051234;28;20057;-47
2021/05/19 06:43:30;;;;;;;11.32;3.00;;;;;;;48.26;6.37;98726.91;5051329;28;20040;-52
2021/05/19 06:45:56;;;;;;;6.18;2.35;;;;;;;47.95;6.67;98759.72;5048350;28;20048;-52
2021/05/19 06:48:22;;;;;;;4.63;2.25;;;;;;;47.43;6.83;98678.63;5061736;28;20029;-49
2021/05/19 06:50:47;;;;;;;8.52;2.42;;;;;;;47.03;7.28;98742.84;5063211;28;20037;-46
2021/05/19 06:53:13;;;;;;;9.48;2.15;;;;;;;45.52;8.13;98733.56;5066332;28;20033;-44
2021/05/19 06:55:39;;;;;;;4.15;1.98;;;;;;;43.11;9.89;98720.88;5070177;28;20067;-47
2021/05/19 06:58:06;;;;;;;9.10;2.35;;;;;;;41.86;10.97;98719.16;5070315;28;20036;-52
2021/05/19 07:00:31;;;;;;;6.75;1.92;;;;;;;40.43;11.87;98715.44;5066096;28;20033;-46
2021/05/19 07:02:57;;;;;;;10.02;1.90;;;;;;;41.00;11.58;98738.06;5057677;28;20048;-46
2021/05/19 07:05:22;;;;;;;7.68;2.10;;;;;;;42.16;10.64;98718.72;5054068;28;20060;-50
2021/05/19 07:07:47;;;;;;;9.68;1.95;;;;;;;43.50;10.13;98759.47;5056476;28;20032;-45
2021/05/19 07:10:16;;;;;;;6.65;1.83;;;;;;;44.49;9.15;98788.25;5064624;28;20501;-47
2021/05/19 07:12:41;;;;;;;5.75;1.50;;;;;;;45.00;8.49;98765.22;5059469;28;20095;-46
2021/05/19 07:15:12;;;;;;;10.02;1.80;;;;;;;44.40;9.55;98765.94;5067570;28;20355;-51
2021/05/19 07:17:39;;;;;;;9.45;1.65;;;;;;;41.93;11.05;98799.22;5052024;28;20029;-46
2021/05/19 07:20:06;;;;;;;6.72;1.85;;;;;;;39.00;13.34;98786.44;5051014;28;20036;-44
2021/05/19 07:22:31;;;;;;;4.85;1.50;;;;;;;36.45;16.10;98778.41;5061723;28;20051;-55
2021/05/19 07:24:57;;;;;;;8.98;1.60;;;;;;;34.36;18.29;98778.03;5068251;28;20446;-50
2021/05/19 07:27:23;;;;;;;7.63;1.70;;;;;;;32.96;19.83;98794.16;5068632;28;20101;-44
2021/05/19 07:29:48;;;;;;;6.03;1.30;;;;;;;34.90;18.32;98797.78;5056675;28;20463;-50
2021/05/19 07:32:14;;;;;;;10.25;1.50;;;;;;;37.15;15.75;98786.16;5063160;28;20124;-52
2021/05/19 07:34:39;;;;;;;1.45;0.90;;;;;;;36.86;16.16;98787.56;5063672;28;20032;-50
2021/05/19 07:37:10;;;;;;;7.72;1.20;;;;;;;35.43;17.53;98794.66;5055243;28;20437;-53
2021/05/19 07:39:35;;;;;;;3.58;0.98;;;;;;;35.46;17.54;98792.06;5068026;28;20112;-48
2021/05/19 07:42:01;;;;;;;5.00;1.10;;;;;;;37.52;15.68;98772.69;5056678;28;20036;-56
2021/05/19 07:44:27;;;;;;;4.68;1.20;;;;;;;38.98;14.71;98777.56;5061464;28;20059;-47
2021/05/19 07:46:53;;;;;;;6.07;1.10;;;;;;;40.63;13.35;98788.59;5065844;28;20024;-45
2021/05/19 07:49:18;;;;;;;3.78;1.20;;;;;;;40.25;13.59;98798.13;5054064;28;20037;-54
2021/05/19 07:51:44;;;;;;;3.90;1.30;;;;;;;38.40;15.24;98799.56;5066959;28;20465;-50
2021/05/19 07:54:13;;;;;;;2.72;1.20;;;;;;;37.14;16.04;98771.38;5058001;28;20112;-49
2021/05/19 07:56:48;;;;;;;4.80;1.50;;;;;;;35.68;17.52;98823.03;5060203;28;20044;-52
2021/05/19 07:59:16;;;;;;;6.55;1.42;;;;;;;35.84;18.08;98793.66;5067164;28;20083;-48
2021/05/19 08:02:01;;;;;;;8.52;1.30;;;;;;;35.54;18.19;98790.53;5054685;28;20055;-56
2021/05/19 08:04:26;;;;;;;7.80;1.50;;;;;;;36.81;17.37;98804.44;5061375;28;20033;-50
2021/05/19 08:06:51;;;;;;;4.63;1.25;;;;;;;37.57;16.07;98810.78;5059227;28;20043;-56
2021/05/19 08:09:17;;;;;;;5.18;1.40;;;;;;;38.38;15.13;98804.69;5067965;28;20422;-50
2021/05/19 08:11:42;;;;;;;3.83;1.30;;;;;;;39.01;14.42;98742.50;5055490;28;20105;-55
2021/05/19 08:14:08;;;;;;;3.80;1.50;;;;;;;39.15;14.59;98809.41;5062043;28;20422;-54
2021/05/19 08:16:34;;;;;;;2.25;1.58;;;;;;;37.94;15.60;98808.41;5062578;28;20039;-52
2021/05/19 08:18:59;;;;;;;6.45;2.22;;;;;;;36.29;17.35;98811.47;5056289;28;20331;-53
2021/05/19 08:21:24;;;;;;;2.58;1.58;;;;;;;34.66;18.92;98773.00;5067319;28;20039;-50
2021/05/19 08:23:50;;;;;;;5.28;1.83;;;;;;;33.79;20.40;98806.81;5056155;28;20646;-49
2021/05/19 08:26:15;;;;;;;4.95;1.88;;;;;;;32.98;21.32;98805.78;5062055;28;20040;-52
2021/05/19 08:28:41;;;;;;;7.65;1.90;;;;;;;32.38;21.82;98812.59;5062608;28;20501;-52
2021/05/19 08:31:08;;;;;;;3.70;1.95;;;;;;;31.41;22.44;98810.34;5055139;28;20036;-55
2021/05/19 08:33:33;;;;;;;6.38;2.10;;;;;;;30.92;23.41;98817.53;5054481;28;20051;-56
2021/05/19 08:35:59;;;;;;;4.95;1.80;;;;;;;30.52;23.98;98842.25;5056363;28;20040;-50
2021/05/19 08:38:24;;;;;;;4.90;2.30;;;;;;;30.37;24.31;98848.63;5058573;28;20043;-56
2021/05/19 08:40:50;;;;;;;7.25;2.38;;;;;;;30.10;24.82;98832.38;5050852;28;20559;-57
2021/05/19 08:43:16;;;;;;;4.82;2.33;;;;;;;29.63;25.39;98830.44;5064676;28;20048;-53
2021/05/19 08:45:41;;;;;;;5.28;2.47;;;;;;;29.32;25.65;98830.34;5050901;28;20055;-54
2021/05/19 08:48:08;;;;;;;4.85;2.45;;;;;;;29.06;26.18;98833.06;5051121;28;20078;-51
2021/05/19 08:50:36;;;;;;;5.65;2.40;;;;;;;29.16;26.28;98845.19;5050529;28;20024;-55
2021/05/19 08:53:06;;;;;;;5.80;3.08;;;;;;;29.28;26.51;98843.03;5064719;28;20025;-49
2021/05/19 08:55:32;;;;;;;5.32;2.67;;;;;;;29.17;26.32;98835.81;5066371;28;20028;-55
2021/05/19 08:57:58;;;;;;;7.75;2.97;;;;;;;29.15;26.20;98846.28;5050571;28;20086;-53
2021/05/19 09:00:24;;;;;;;8.27;3.17;;;;;;;29.05;26.39;98877.41;5050547;28;20136;-53
2021/05/19 09:03:09;;;;;;;5.63;2.95;;;;;;;29.13;26.14;98857.59;5062544;28;20036;-49
2021/05/19 09:05:37;;;;;;;6.93;3.28;;;;;;;28.69;26.64;98845.00;5067724;28;20456;-47
2021/05/19 09:08:22;;;;;;;4.00;3.00;;;;;;;28.60;27.03;98852.94;5068880;28;20032;-50
2021/05/19 09:10:59;;;;;;;7.07;2.95;;;;;;;28.29;27.61;98849.19;5067909;28;20501;-52
2021/05/19 09:13:41;;;;;;;7.68;3.58;;;;;;;28.47;27.68;98865.28;5067172;28;20036;-52
2021/05/19 09:16:06;;;;;;;9.38;3.88;;;;;;;28.36;27.74;98825.84;5068484;28;20063;-49
2021/05/19 09:18:49;;;;;;;5.07;3.28;;;;;;;28.59;27.41;98866.97;5068688;28;20103;-46
2021/05/19 09:21:39;;;;;;;6.88;3.70;;;;;;;28.50;27.61;98861.97;5066572;28;20059;-48
2021/05/19 09:24:21;;;;;;;6.88;3.83;;;;;;;28.32;28.37;98856.91;5068117;28;20043;-56
2021/05/19 09:27:02;;;;;;;9.82;3.90;;;;;;;28.42;28.32;98867.97;5068207;28;20528;-48
2021/05/19 09:29:32;;;;;;;4.78;3.50;;;;;;;28.50;27.77;98884.00;5066847;28;20033;-47
2021/05/19 09:32:00;;;;;;;5.55;4.15;;;;;;;28.25;28.49;98872.84;5068180;28;20038;-48
2021/05/19 09:34:28;;;;;;;6.97;3.83;;;;;;;27.85;28.92;98874.94;5067831;28;20036;-48
2021/05/19 09:37:13;;;;;;;7.65;4.10;;;;;;;27.78;28.81;98895.25;5067836;28;20056;-44
2021/05/19 09:39:47;;;;;;;8.10;4.63;;;;;;;27.80;29.10;98900.50;5068670;28;20125;-45
2021/05/19 09:42:12;;;;;;;11.55;4.53;;;;;;;27.88;28.53;98885.44;5068156;28;20045;-51
2021/05/19 09:44:38;;;;;;;6.60;3.88;;;;;;;27.81;28.93;98863.66;5063085;28;20476;-58
2021/05/19 09:47:04;;;;;;;4.85;4.28;;;;;;;28.03;28.85;98882.00;5059503;28;20135;-59
2021/05/19 09:49:29;;;;;;;10.20;4.00;;;;;;;28.01;28.73;98848.41;5051695;28;20027;-56
2021/05/19 09:51:59;;;;;;;5.95;4.50;;;;;;;28.02;28.33;98874.81;5050601;28;20143;-52
2021/05/19 09:54:28;;;;;;;7.60;4.20;;;;;;;27.97;28.66;98888.50;5049689;28;20114;-54
2021/05/19 09:57:04;;;;;;;8.68;4.47;;;;;;;28.00;29.30;98885.28;5050230;28;20036;-48
2021/05/19 09:59:30;;;;;;;6.80;4.05;;;;;;;27.84;29.31;98879.63;5056462;28;20094;-52
2021/05/19 10:01:58;;;;;;;7.60;3.65;;;;;;;27.62;29.36;98877.78;5059867;28;20481;-52
2021/05/19 10:04:28;;;;;;;6.57;4.15;;;;;;;27.01;29.70;98842.19;5067014;28;20036;-55
2021/05/19 10:06:56;;;;;;;6.60;4.70;;;;;;;27.32;29.68;98916.72;5067174;28;20445;-50
2021/05/19 10:09:21;;;;;;;7.43;4.50;;;;;;;26.92;30.51;98900.31;5066125;28;20086;-51
2021/05/19 10:11:47;;;;;;;5.65;4.28;;;;;;;26.67;30.94;98919.97;5067256;28;20028;-50
2021/05/19 10:14:14;;;;;;;6.32;4.70;;;;;;;26.56;31.60;98910.75;5065761;28;20090;-50
2021/05/19 10:16:50;;;;;;;4.20;3.78;;;;;;;26.62;31.13;98914.41;5065763;28;20036;-51
2021/05/19 10:19:24;;;;;;;5.45;3.80;;;;;;;26.82;30.47;98902.06;5065733;28;20081;-49
2021/05/19 10:21:51;;;;;;;8.02;4.07;;;;;;;27.10;30.30;98909.31;5067643;28;20025;-48
2021/05/19 10:24:16;;;;;;;6.47;4.63;;;;;;;27.26;30.14;98896.63;5067334;28;20489;-49
2021/05/19 10:27:01;;;;;;;9.57;4.00;;;;;;;27.45;29.28;98934.72;5070772;28;20029;-49
2021/05/19 10:29:45;;;;;;;5.10;4.13;;;;;;;27.46;29.21;98919.91;5070478;28;20036;-46
2021/05/19 10:32:19;;;;;;;5.97;4.40;;;;;;;27.29;29.52;98915.34;5071412;28;20127;-51
2021/05/19 10:34:46;;;;;;;4.55;4.15;;;;;;;27.23;29.07;98886.97;5071110;28;20118;-50
2021/05/19 10:37:26;;;;;;;8.60;4.55;;;;;;;27.70;28.56;98895.72;5069729;28;20037;-51
2021/05/19 10:40:07;;;;;;;4.97;4.47;;;;;;;28.06;27.99;98920.78;5069938;28;20060;-49
2021/05/19 10:42:42;;;;;;;5.85;4.53;;;;;;;28.14;28.07;98902.97;5071048;28;20036;-49
2021/05/19 10:45:13;;;;;;;6.60;5.28;;;;;;;28.05;28.54;98864.09;5070430;28;20514;-50
2021/05/19 10:47:44;;;;;;;5.68;4.50;;;;;;;28.07;28.63;98878.44;5057236;28;20028;-53
2021/05/19 11:01:12;;;;;;;6.72;4.43;;;;;;;27.11;29.66;98888.19;5069478;28;20061;-56
2021/05/19 11:04:01;;;;;;;7.13;4.85;;;;;;;26.92;30.29;98916.81;5070695;28;20033;-58
2021/05/19 11:06:26;;;;;;;6.55;4.38;;;;;;;26.49;31.38;98908.19;5070280;28;20116;-47
2021/05/19 11:08:52;;;;;;;8.98;4.90;;;;;;;26.44;31.56;98938.31;5070843;28;20119;-46
2021/05/19 11:11:22;;;;;;;5.18;4.32;;;;;;;26.37;31.35;98932.16;5069583;28;20037;-51
2021/05/19 11:16:59;;;;;;;5.32;4.43;;;;;;;26.54;31.38;98921.16;5069666;28;20067;-48
2021/05/19 11:19:28;;;;;;;7.68;5.40;;;;;;;26.58;31.10;98921.50;5067999;28;20033;-57
2021/05/19 11:22:00;;;;;;;5.68;4.63;;;;;;;26.41;31.73;98921.53;5063037;28;20033;-51
2021/05/19 11:24:27;;;;;;;8.77;4.65;;;;;;;26.44;31.26;98918.28;5057690;28;20515;-53
2021/05/19 11:26:53;;;;;;;6.15;4.85;;;;;;;26.64;30.70;98907.56;5064087;28;20059;-49
2021/05/19 11:29:19;;;;;;;5.95;4.57;;;;;;;26.75;30.83;98903.06;5064350;28;20041;-51
2021/05/19 11:31:50;;;;;;;6.13;4.50;;;;;;;26.57;30.02;98874.00;5051844;28;20453;-48
2021/05/19 11:34:20;;;;;;;6.43;4.20;;;;;;;27.05;29.68;98923.84;5051480;28;20060;-48
2021/05/19 11:36:56;;;;;;;7.75;5.00;;;;;;;27.27;29.38;98909.25;5050791;28;20035;-51
2021/05/19 11:39:24;;;;;;;6.70;4.97;;;;;;;27.46;29.54;98906.16;5052534;28;20573;-48
2021/05/19 11:41:51;;;;;;;10.23;5.55;;;;;;;27.50;29.13;98918.31;5052009;28;20120;-46
2021/05/19 11:44:31;;;;;;;7.38;5.00;;;;;;;27.68;29.17;98924.56;5052282;28;20049;-51
2021/05/19 11:46:56;;;;;;;6.25;4.85;;;;;;;27.59;28.66;98881.03;5052243;28;20115;-44
2021/05/19 11:49:22;;;;;;;5.85;5.30;;;;;;;27.84;28.89;98909.88;5053192;28;20121;-49